createdAt,value
2019-06-26T00:01:30.510Z,21.98
2019-06-26T00:04:02.086Z,22.00
2019-06-26T00:06:33.893Z,22.05
2019-06-26T00:09:08.428Z,22.07
2019-06-26T00:11:40.243Z,22.12
2019-06-26T00:14:12.561Z,22.14
2019-06-26T00:16:44.254Z,22.17
2019-06-26T00:19:16.433Z,22.19
2019-06-26T00:21:48.735Z,22.21
2019-06-26T00:24:21.251Z,22.19
2019-06-26T00:26:57.666Z,22.15
2019-06-26T00:29:29.412Z,22.09
2019-06-26T00:32:01.602Z,22.03
2019-06-26T00:34:33.809Z,21.98
2019-06-26T00:37:08.827Z,21.97
2019-06-26T00:39:41.453Z,21.97
2019-06-26T00:42:14.410Z,21.89
2019-06-26T00:44:54.261Z,21.85
2019-06-26T00:47:29.718Z,21.85
2019-06-26T00:50:01.632Z,21.80
2019-06-26T00:52:33.890Z,21.74
2019-06-26T00:55:05.916Z,21.71
2019-06-26T00:58:05.858Z,21.68
2019-06-26T01:00:39.766Z,21.64
2019-06-26T01:03:14.950Z,21.60
2019-06-26T01:05:46.706Z,21.57
2019-06-26T01:08:23.556Z,21.57
2019-06-26T01:10:57.110Z,21.57
2019-06-26T01:13:34.182Z,21.52
2019-06-26T01:16:07.664Z,21.47
2019-06-26T01:18:40.163Z,21.47
2019-06-26T01:21:12.255Z,21.48
2019-06-26T01:23:44.297Z,21.50
2019-06-26T01:26:20.664Z,21.52
2019-06-26T01:28:53.414Z,21.53
2019-06-26T01:31:32.399Z,21.55
2019-06-26T01:34:23.009Z,21.62
2019-06-26T01:37:24.987Z,21.62
2019-06-26T01:40:13.267Z,21.63
2019-06-26T01:42:50.543Z,21.61
2019-06-26T01:45:27.652Z,21.64
2019-06-26T01:47:59.279Z,21.67
2019-06-26T01:50:31.749Z,21.69
2019-06-26T01:53:07.192Z,21.69
2019-06-26T01:55:42.503Z,21.73
2019-06-26T01:58:16.541Z,21.74
2019-06-26T02:00:49.018Z,21.73
2019-06-26T02:03:23.879Z,21.71
2019-06-26T02:05:59.716Z,21.72
2019-06-26T02:08:39.331Z,21.73
2019-06-26T02:11:12.096Z,21.77
2019-06-26T02:13:45.638Z,21.77
2019-06-26T02:16:17.689Z,21.73
2019-06-26T02:18:58.290Z,21.74
2019-06-26T02:21:31.430Z,21.75
2019-06-26T02:24:03.730Z,21.78
2019-06-26T02:26:35.612Z,21.79
2019-06-26T02:29:07.246Z,21.78
2019-06-26T02:31:39.881Z,21.80
2019-06-26T02:34:11.864Z,21.81
2019-06-26T02:36:46.572Z,21.84
2019-06-26T02:39:19.206Z,21.86
2019-06-26T02:41:52.483Z,21.89
2019-06-26T02:44:28.591Z,21.90
2019-06-26T02:47:18.748Z,21.90
2019-06-26T02:49:40.022Z,21.94
2019-06-26T02:52:12.853Z,21.97
2019-06-26T02:54:48.392Z,22.02
2019-06-26T02:57:23.895Z,22.07
2019-06-26T03:00:11.519Z,22.12
2019-06-26T03:02:44.047Z,22.13
2019-06-26T03:05:18.892Z,22.17
2019-06-26T03:07:55.698Z,22.20
2019-06-26T03:10:28.709Z,22.22
2019-06-26T03:13:15.973Z,22.29
2019-06-26T03:16:00.724Z,22.31
2019-06-26T03:18:33.324Z,22.34
2019-06-26T03:21:05.686Z,22.39
2019-06-26T03:23:38.109Z,22.45
2019-06-26T03:26:10.801Z,22.50
2019-06-26T03:28:42.876Z,22.55
2019-06-26T03:31:14.807Z,22.60
2019-06-26T03:33:48.949Z,22.61
2019-06-26T03:36:26.889Z,22.69
2019-06-26T03:38:59.491Z,22.72
2019-06-26T03:41:32.051Z,22.77
2019-06-26T03:44:04.265Z,22.85
2019-06-26T03:46:36.583Z,22.85
2019-06-26T03:49:09.099Z,22.88
2019-06-26T03:51:40.787Z,22.92
2019-06-26T03:54:12.581Z,22.98
2019-06-26T03:56:44.538Z,22.99
2019-06-26T03:59:16.188Z,23.09
2019-06-26T04:01:48.165Z,23.19
2019-06-26T04:04:19.811Z,23.27
2019-06-26T04:06:51.930Z,23.35
2019-06-26T04:09:23.820Z,23.45
2019-06-26T04:11:56.133Z,23.51
2019-06-26T04:14:28.139Z,23.56
2019-06-26T04:17:00.283Z,23.51
2019-06-26T04:19:32.620Z,23.51
2019-06-26T04:22:04.957Z,23.58
2019-06-26T04:24:36.386Z,23.66
2019-06-26T04:27:08.770Z,23.65
2019-06-26T04:29:40.374Z,23.74
2019-06-26T04:32:12.453Z,23.84
2019-06-26T04:34:44.714Z,23.91
2019-06-26T04:37:19.096Z,23.99
2019-06-26T04:39:55.504Z,24.03
2019-06-26T04:42:34.497Z,24.12
2019-06-26T04:45:05.817Z,24.23
2019-06-26T04:47:37.813Z,24.35
2019-06-26T04:50:17.748Z,24.44
2019-06-26T04:52:49.767Z,24.54
2019-06-26T04:55:21.892Z,24.62
2019-06-26T04:57:53.587Z,24.68
2019-06-26T05:00:25.753Z,24.73
2019-06-26T05:02:57.961Z,24.89
2019-06-26T05:05:39.100Z,24.98
2019-06-26T05:08:03.104Z,25.19
2019-06-26T05:10:35.227Z,25.27
2019-06-26T05:13:06.898Z,25.45
2019-06-26T05:15:39.325Z,25.61
2019-06-26T05:18:10.898Z,25.76
2019-06-26T05:20:42.681Z,25.99
2019-06-26T05:23:14.897Z,25.98
2019-06-26T05:25:47.237Z,26.09
2019-06-26T05:28:19.242Z,26.15
2019-06-26T05:30:52.483Z,26.25
2019-06-26T05:33:24.816Z,26.40
2019-06-26T05:35:56.751Z,26.74
2019-06-26T05:38:29.158Z,26.87
2019-06-26T05:41:01.062Z,27.11
2019-06-26T05:43:32.679Z,27.14
2019-06-26T05:46:05.031Z,27.31
2019-06-26T05:48:37.705Z,27.37
2019-06-26T05:51:09.499Z,27.40
2019-06-26T05:53:41.683Z,27.52
2019-06-26T05:56:14.313Z,27.95
2019-06-26T05:58:46.939Z,27.91
2019-06-26T06:01:19.223Z,28.14
2019-06-26T06:03:50.793Z,28.18
2019-06-26T06:06:23.095Z,28.22
2019-06-26T06:08:55.348Z,28.11
2019-06-26T06:11:31.035Z,28.31
2019-06-26T06:14:03.284Z,28.41
2019-06-26T06:16:46.817Z,28.54
2019-06-26T06:19:08.459Z,28.84
2019-06-26T06:21:40.031Z,29.05
2019-06-26T06:24:11.834Z,29.32
2019-06-26T06:26:43.771Z,28.65
2019-06-26T06:29:16.141Z,28.84
2019-06-26T06:31:48.106Z,28.99
2019-06-26T06:34:19.843Z,28.88
2019-06-26T06:36:51.447Z,28.61
2019-06-26T06:39:23.071Z,28.98
2019-06-26T06:41:54.709Z,29.06
2019-06-26T06:44:26.541Z,29.45
2019-06-26T06:47:04.010Z,29.53
2019-06-26T06:49:31.364Z,29.31
2019-06-26T06:52:03.384Z,29.23
2019-06-26T06:54:35.079Z,29.41
2019-06-26T06:57:07.360Z,29.23
2019-06-26T06:59:38.877Z,29.66
2019-06-26T07:02:10.600Z,29.87
2019-06-26T07:04:42.374Z,29.98
2019-06-26T07:07:14.065Z,30.10
2019-06-26T07:09:45.784Z,30.23
2019-06-26T07:12:20.791Z,29.96
2019-06-26T07:14:51.583Z,30.11
2019-06-26T07:17:23.280Z,30.08
2019-06-26T07:19:54.764Z,30.33
2019-06-26T07:22:26.708Z,30.67
2019-06-26T07:24:58.975Z,30.37
2019-06-26T07:27:30.762Z,30.30
2019-06-26T07:30:02.464Z,30.42
2019-06-26T07:32:34.254Z,30.54
2019-06-26T07:35:06.836Z,29.98
2019-06-26T07:37:38.906Z,30.27
2019-06-26T07:40:11.062Z,30.42
2019-06-26T07:42:42.657Z,30.65
2019-06-26T07:45:15.171Z,30.45
2019-06-26T07:47:46.990Z,30.73
2019-06-26T07:50:19.010Z,31.06
2019-06-26T07:52:50.629Z,30.63
2019-06-26T07:55:22.524Z,30.81
2019-06-26T07:57:54.168Z,31.27
2019-06-26T08:00:26.377Z,31.19
2019-06-26T08:02:58.094Z,31.24
2019-06-26T08:05:29.824Z,31.20
2019-06-26T08:08:02.505Z,31.25
2019-06-26T08:10:34.266Z,31.36
2019-06-26T08:13:06.112Z,31.44
2019-06-26T08:15:37.690Z,31.45
2019-06-26T08:18:09.248Z,31.47
2019-06-26T08:20:55.025Z,31.22
2019-06-26T08:23:14.913Z,31.58
2019-06-26T08:25:46.954Z,31.91
2019-06-26T08:28:18.784Z,31.93
2019-06-26T08:30:50.913Z,31.41
2019-06-26T08:33:22.825Z,31.47
2019-06-26T08:35:54.635Z,31.92
2019-06-26T08:38:26.181Z,32.30
2019-06-26T08:41:00.366Z,31.65
2019-06-26T08:43:35.491Z,32.00
2019-06-26T08:46:07.456Z,32.38
2019-06-26T08:48:40.695Z,31.43
2019-06-26T08:51:12.670Z,31.68
2019-06-26T08:53:45.043Z,32.34
2019-06-26T08:56:18.273Z,31.92
2019-06-26T08:58:49.970Z,31.55
2019-06-26T09:01:21.676Z,31.58
2019-06-26T09:03:53.541Z,31.99
2019-06-26T09:06:25.773Z,32.31
2019-06-26T09:08:57.531Z,32.06
2019-06-26T09:11:29.009Z,31.89
2019-06-26T09:14:00.801Z,31.76
2019-06-26T09:16:32.655Z,31.97
2019-06-26T09:19:04.662Z,31.93
2019-06-26T09:21:36.773Z,31.91
2019-06-26T09:24:08.488Z,32.23
2019-06-26T09:26:40.477Z,32.94
2019-06-26T09:29:12.800Z,33.32
2019-06-26T09:31:48.828Z,32.82
2019-06-26T09:34:20.754Z,32.55
2019-06-26T09:36:52.346Z,33.11
2019-06-26T09:39:24.046Z,32.45
2019-06-26T09:41:55.958Z,33.05
2019-06-26T09:44:27.747Z,32.89
2019-06-26T09:47:00.088Z,32.51
2019-06-26T09:49:31.949Z,32.00
2019-06-26T09:52:03.530Z,32.27
2019-06-26T09:54:35.678Z,31.81
2019-06-26T09:57:07.391Z,31.80
2019-06-26T09:59:41.513Z,32.58
2019-06-26T10:02:15.334Z,32.33
2019-06-26T10:04:47.776Z,32.52
2019-06-26T10:07:19.471Z,32.87
2019-06-26T10:09:51.125Z,32.95
2019-06-26T10:12:22.933Z,33.35
2019-06-26T10:14:54.624Z,33.30
2019-06-26T10:17:26.239Z,33.04
2019-06-26T10:19:58.388Z,33.21
2019-06-26T10:22:30.433Z,33.32
2019-06-26T10:25:02.603Z,33.14
2019-06-26T10:27:34.618Z,33.15
2019-06-26T10:30:08.561Z,33.14
2019-06-26T10:32:40.708Z,32.89
2019-06-26T10:35:12.761Z,32.56
2019-06-26T10:37:44.650Z,32.79
2019-06-26T10:40:18.206Z,32.40
2019-06-26T10:42:51.259Z,32.35
2019-06-26T10:45:23.389Z,32.54
2019-06-26T10:47:55.659Z,32.06
2019-06-26T10:50:27.146Z,32.40
2019-06-26T10:52:59.054Z,31.96
2019-06-26T10:55:30.960Z,32.10
2019-06-26T10:58:02.693Z,32.34
2019-06-26T11:00:34.987Z,32.46
2019-06-26T11:03:06.871Z,31.88
2019-06-26T11:05:38.556Z,32.55
2019-06-26T11:08:10.410Z,32.40
2019-06-26T11:10:42.442Z,32.40
2019-06-26T11:13:14.427Z,32.35
2019-06-26T11:15:46.150Z,32.61
2019-06-26T11:18:18.137Z,32.09
2019-06-26T11:20:50.154Z,32.20
2019-06-26T11:23:21.707Z,32.13
2019-06-26T11:25:53.485Z,32.30
2019-06-26T11:28:25.180Z,32.61
2019-06-26T11:30:58.245Z,32.26
2019-06-26T11:33:32.979Z,32.08
2019-06-26T11:36:04.653Z,31.59
2019-06-26T11:38:36.678Z,31.83
2019-06-26T11:41:08.572Z,31.61
2019-06-26T11:43:40.563Z,31.96
2019-06-26T11:46:12.645Z,31.50
2019-06-26T11:48:44.361Z,31.41
2019-06-26T11:51:16.564Z,31.09
2019-06-26T11:53:48.578Z,31.42
2019-06-26T11:56:20.703Z,31.53
2019-06-26T11:58:52.350Z,31.58
2019-06-26T12:01:24.147Z,32.15
2019-06-26T12:03:56.023Z,31.94
2019-06-26T12:06:27.826Z,31.16
2019-06-26T12:08:59.648Z,31.48
2019-06-26T12:11:31.138Z,31.73
2019-06-26T12:14:03.548Z,31.39
2019-06-26T12:16:35.392Z,31.17
2019-06-26T12:19:07.137Z,31.33
2019-06-26T12:21:38.762Z,31.66
2019-06-26T12:24:10.710Z,31.45
2019-06-26T12:26:42.538Z,31.66
2019-06-26T12:29:14.554Z,31.63
2019-06-26T12:31:46.509Z,31.82
2019-06-26T12:34:18.098Z,31.62
2019-06-26T12:36:49.958Z,31.63
2019-06-26T12:39:21.576Z,31.14
2019-06-26T12:41:53.270Z,31.03
2019-06-26T12:44:25.466Z,31.02
2019-06-26T12:46:57.095Z,31.18
2019-06-26T12:49:28.849Z,30.96
2019-06-26T12:52:00.663Z,31.04
2019-06-26T12:54:32.134Z,31.19
2019-06-26T12:57:03.813Z,31.11
2019-06-26T12:59:35.439Z,30.65
2019-06-26T13:02:07.188Z,30.92
2019-06-26T13:04:47.630Z,31.13
2019-06-26T13:07:19.261Z,30.98
2019-06-26T13:09:50.973Z,30.74
2019-06-26T13:12:22.708Z,30.96
2019-06-26T13:14:54.780Z,30.81
2019-06-26T13:17:26.707Z,30.94
2019-06-26T13:20:00.073Z,30.72
2019-06-26T13:22:32.090Z,30.69
2019-06-26T13:25:03.652Z,30.70
2019-06-26T13:27:36.609Z,30.51
2019-06-26T13:30:08.942Z,30.54
2019-06-26T13:32:40.558Z,30.30
2019-06-26T13:35:15.036Z,30.36
2019-06-26T13:37:46.814Z,30.32
2019-06-26T13:40:18.511Z,30.18
2019-06-26T13:42:50.837Z,30.08
2019-06-26T13:45:23.011Z,30.11
2019-06-26T13:47:55.203Z,30.22
2019-06-26T13:50:32.208Z,29.91
2019-06-26T13:53:14.513Z,29.70
2019-06-26T13:55:46.934Z,29.90
2019-06-26T13:58:19.816Z,29.98
2019-06-26T14:00:51.272Z,30.00
2019-06-26T14:03:23.674Z,29.92
2019-06-26T14:05:55.781Z,29.84
2019-06-26T14:08:27.590Z,29.86
2019-06-26T14:10:59.742Z,29.60
2019-06-26T14:13:31.326Z,29.53
2019-06-26T14:16:02.983Z,29.54
2019-06-26T14:18:34.992Z,29.42
2019-06-26T14:21:06.962Z,29.44
2019-06-26T14:23:38.642Z,28.96
2019-06-26T14:26:10.261Z,29.15
2019-06-26T14:28:42.260Z,28.92
2019-06-26T14:31:49.910Z,29.07
2019-06-26T14:34:21.584Z,29.17
2019-06-26T14:36:53.484Z,28.85
2019-06-26T14:39:25.203Z,28.86
2019-06-26T14:41:57.099Z,28.87
2019-06-26T14:44:29.162Z,28.94
2019-06-26T14:47:00.671Z,28.85
2019-06-26T14:49:32.303Z,28.77
2019-06-26T14:52:03.823Z,28.65
2019-06-26T14:54:35.313Z,28.50
2019-06-26T14:57:07.316Z,28.57
2019-06-26T14:59:39.393Z,28.44
2019-06-26T15:02:11.060Z,28.30
2019-06-26T17:12:21.047Z,26.56
2019-06-26T17:15:24.628Z,26.50
2019-06-26T17:18:08.703Z,26.42
2019-06-26T17:20:41.642Z,26.35
2019-06-26T17:23:32.372Z,26.31
2019-06-26T17:26:09.436Z,26.30
2019-06-26T17:28:43.554Z,26.26
2019-06-26T17:31:43.678Z,26.20
2019-06-26T17:34:27.093Z,26.13
2019-06-26T17:37:06.977Z,26.11
2019-06-26T17:39:38.693Z,26.05
2019-06-26T17:42:19.876Z,25.98
2019-06-26T17:44:52.437Z,25.94
2019-06-26T17:47:29.777Z,25.90
2019-06-26T17:50:16.708Z,25.93
2019-06-26T17:52:47.836Z,25.83
2019-06-26T17:55:19.901Z,25.79
2019-06-26T17:57:57.553Z,25.77
2019-06-26T18:00:39.854Z,25.71
2019-06-26T18:03:17.320Z,25.67
2019-06-26T18:05:52.815Z,25.64
2019-06-26T18:08:26.359Z,25.60
2019-06-26T18:10:58.247Z,25.60
2019-06-26T18:13:30.071Z,25.58
2019-06-26T18:16:01.871Z,25.51
2019-06-26T18:18:33.858Z,25.48
2019-06-26T18:21:06.278Z,25.43
2019-06-26T18:23:38.779Z,25.34
2019-06-26T18:26:13.659Z,25.29
2019-06-26T18:28:45.562Z,25.29
2019-06-26T18:31:44.625Z,25.24
2019-06-26T18:34:17.376Z,25.19
2019-06-26T18:36:50.270Z,25.06
2019-06-26T18:39:24.647Z,24.96
2019-06-26T18:42:10.455Z,24.91
2019-06-26T18:44:43.170Z,24.88
2019-06-26T18:47:15.012Z,24.90
2019-06-26T18:49:48.253Z,24.90
2019-06-26T18:52:23.474Z,24.89
2019-06-26T18:54:55.635Z,24.84
2019-06-26T18:57:27.742Z,24.88
2019-06-26T19:00:00.478Z,24.91
2019-06-26T19:02:32.544Z,24.87
2019-06-26T19:05:04.408Z,24.83
2019-06-26T19:07:36.123Z,24.78
2019-06-26T19:10:08.745Z,24.68
2019-06-26T19:12:40.768Z,24.58
2019-06-26T19:15:12.866Z,24.53
2019-06-26T19:17:46.676Z,24.47
2019-06-26T19:20:20.594Z,24.44
2019-06-26T19:23:16.921Z,24.41
2019-06-26T19:25:48.848Z,24.34
2019-06-26T19:28:23.098Z,24.30
2019-06-26T19:30:54.986Z,24.32
2019-06-26T19:33:26.569Z,24.31
2019-06-26T19:35:58.049Z,24.28
2019-06-26T19:38:36.218Z,24.25
2019-06-26T19:41:08.227Z,24.31
2019-06-26T19:43:38.130Z,24.27
2019-06-26T19:46:10.936Z,24.28
2019-06-26T19:48:42.727Z,24.22
2019-06-26T19:51:14.637Z,24.22
2019-06-26T19:53:48.681Z,24.19
2019-06-26T19:56:21.137Z,24.18
2019-06-26T19:58:52.830Z,24.21
2019-06-26T20:01:25.583Z,24.21
2019-06-26T20:03:57.330Z,24.22
2019-06-26T20:06:28.930Z,24.20
2019-06-26T20:09:00.693Z,24.17
2019-06-26T20:11:32.973Z,24.13
2019-06-26T20:14:08.160Z,24.18
2019-06-26T20:16:40.011Z,24.14
2019-06-26T20:19:12.269Z,24.16
2019-06-26T20:21:46.672Z,24.15
2019-06-26T20:24:19.203Z,24.15
2019-06-26T20:26:56.086Z,24.13
2019-06-26T20:29:28.899Z,24.13
2019-06-26T20:32:01.032Z,24.14
2019-06-26T20:34:32.894Z,24.12
2019-06-26T20:37:05.480Z,24.12
2019-06-26T20:39:42.457Z,24.07
2019-06-26T20:42:15.034Z,24.05
2019-06-26T20:44:46.848Z,24.01
2019-06-26T20:47:19.175Z,24.00
2019-06-26T20:49:53.473Z,24.03
2019-06-26T20:52:24.915Z,24.03
2019-06-26T20:55:02.101Z,24.05
2019-06-26T20:57:30.571Z,24.02
2019-06-26T21:00:02.103Z,23.98
2019-06-26T21:02:34.411Z,23.92
2019-06-26T21:05:06.490Z,23.90
2019-06-26T21:07:38.754Z,23.85
2019-06-26T21:10:10.456Z,23.85
2019-06-26T21:12:41.936Z,23.80
2019-06-26T21:15:13.549Z,23.76
2019-06-26T21:17:45.151Z,23.77
2019-06-26T21:20:17.311Z,23.77
2019-06-26T21:22:48.826Z,23.72
2019-06-26T21:25:24.001Z,23.66
2019-06-26T21:27:55.560Z,23.62
2019-06-26T21:30:27.237Z,23.64
2019-06-26T21:32:59.604Z,23.62
2019-06-26T21:35:31.590Z,23.62
2019-06-26T21:38:03.138Z,23.60
2019-06-26T21:40:40.454Z,23.60
2019-06-26T21:43:12.872Z,23.46
2019-06-26T21:45:45.445Z,23.48
2019-06-26T21:48:17.180Z,23.43
2019-06-26T21:50:49.488Z,23.46
2019-06-26T21:53:21.135Z,23.43
2019-06-26T21:55:53.312Z,23.39
2019-06-26T21:58:25.299Z,23.43
2019-06-26T22:00:56.877Z,23.43
2019-06-26T22:03:28.987Z,23.40
2019-06-26T22:06:00.812Z,23.42
2019-06-26T22:08:32.358Z,23.41
2019-06-26T22:11:04.717Z,23.38
2019-06-26T22:13:36.457Z,23.36
2019-06-26T22:16:09.448Z,23.36
2019-06-26T22:18:41.351Z,23.30
2019-06-26T22:21:13.197Z,23.21
2019-06-26T22:23:44.715Z,23.17
2019-06-26T22:26:16.642Z,23.18
2019-06-26T22:28:48.253Z,23.18
2019-06-26T22:31:20.174Z,23.15
2019-06-26T22:33:52.033Z,23.12
2019-06-26T22:36:23.748Z,23.13
2019-06-26T22:38:55.842Z,23.12
2019-06-26T22:41:28.080Z,23.09
2019-06-26T22:43:59.793Z,23.06
2019-06-26T22:46:31.292Z,23.03
2019-06-26T22:49:02.900Z,23.03
2019-06-26T22:51:34.702Z,23.04
2019-06-26T22:54:06.132Z,23.08
2019-06-26T22:56:37.865Z,23.06
2019-06-26T22:59:09.931Z,23.05
2019-06-26T23:01:41.555Z,22.99
2019-06-26T23:04:13.220Z,22.92
2019-06-26T23:06:44.649Z,22.92
2019-06-26T23:09:16.598Z,22.92
2019-06-26T23:11:48.496Z,22.93
2019-06-26T23:14:20.532Z,22.87
2019-06-26T23:16:52.404Z,22.87
2019-06-26T23:19:24.050Z,22.86
2019-06-26T23:21:55.676Z,22.83
2019-06-26T23:24:27.314Z,22.75
2019-06-26T23:26:59.085Z,22.75
2019-06-26T23:29:31.145Z,22.64
2019-06-26T23:32:03.513Z,22.68
2019-06-26T23:34:35.484Z,22.73
2019-06-26T23:37:07.110Z,22.75
2019-06-26T23:39:38.744Z,22.74
2019-06-26T23:42:10.605Z,22.73
2019-06-26T23:44:42.572Z,22.74
2019-06-26T23:47:14.674Z,22.77
2019-06-26T23:49:46.220Z,22.78
2019-06-26T23:52:17.843Z,22.78
2019-06-26T23:54:49.515Z,22.75
2019-06-26T23:57:21.370Z,22.77
2019-06-26T23:59:53.211Z,22.74
